Time;durP1;ratioP1;P1;durP2;ratioP2;P2;SDS_P1;SDS_P2;PMS_P1;PMS_P2;Temp;Humidity;BMP_temperature;BMP_pressure;BME280_temperature;BME280_humidity;BME280_pressure;Samples;Min_cycle;Max_cycle;Signal;HPM_P1;HPM_P2
2022/04/29 00:02:15;;;;;;;5.30;4.53;;;12.50;38.60;;;;;;5053546;28;20216;-31
2022/04/29 00:04:42;;;;;;;8.45;4.07;;;12.50;38.70;;;;;;5054060;28;20212;-30
2022/04/29 00:07:09;;;;;;;6.75;4.28;;;12.40;38.50;;;;;;5053538;28;20181;-30
2022/04/29 00:09:36;;;;;;;8.10;4.97;;;12.50;38.60;;;;;;5053586;28;20193;-31
2022/04/29 00:12:04;;;;;;;7.20;5.30;;;12.40;38.50;;;;;;5053407;28;20186;-30
2022/04/29 00:14:30;;;;;;;6.53;4.95;;;12.40;38.70;;;;;;5053629;28;20185;-30
2022/04/29 00:16:56;;;;;;;10.05;6.45;;;12.30;39.00;;;;;;5053734;28;20596;-31
2022/04/29 00:19:22;;;;;;;6.45;5.00;;;12.30;38.60;;;;;;5053369;28;20170;-30
2022/04/29 00:21:48;;;;;;;8.40;5.45;;;12.30;38.70;;;;;;5053505;28;20281;-31
2022/04/29 00:24:14;;;;;;;9.93;5.10;;;12.20;38.60;;;;;;5053522;28;20682;-30
2022/04/29 00:26:40;;;;;;;8.15;5.00;;;12.20;38.60;;;;;;5053420;28;20173;-30
2022/04/29 00:29:07;;;;;;;5.97;4.00;;;12.20;38.70;;;;;;5053290;28;20183;-30
2022/04/29 00:31:33;;;;;;;8.07;5.78;;;12.10;38.70;;;;;;5052864;28;20197;-30
2022/04/29 00:33:59;;;;;;;7.85;4.50;;;12.00;38.80;;;;;;5053365;28;20272;-31
2022/04/29 00:36:25;;;;;;;8.87;5.07;;;12.00;38.80;;;;;;5053281;28;20295;-30
2022/04/29 00:38:52;;;;;;;5.93;4.00;;;12.00;38.60;;;;;;5052620;28;20165;-30
2022/04/29 00:41:22;;;;;;;7.05;4.00;;;12.00;38.70;;;;;;5052690;28;20236;-31
2022/04/29 00:43:59;;;;;;;7.25;4.97;;;11.90;39.00;;;;;;5053267;28;20680;-31
2022/04/29 00:46:25;;;;;;;7.18;4.82;;;11.90;39.00;;;;;;5053148;28;20216;-30
2022/04/29 00:48:50;;;;;;;5.63;4.13;;;11.90;38.70;;;;;;5053158;28;20213;-30
2022/04/29 00:51:16;;;;;;;6.07;3.67;;;11.90;38.80;;;;;;5052676;28;20955;-30
2022/04/29 00:53:42;;;;;;;7.73;4.10;;;11.90;38.70;;;;;;5052176;28;20182;-30
2022/04/29 00:56:10;;;;;;;6.40;4.30;;;11.90;39.20;;;;;;5051331;28;20212;-30
2022/04/29 00:58:42;;;;;;;8.25;5.15;;;11.80;39.00;;;;;;5052682;28;20408;-30
2022/04/29 01:01:08;;;;;;;6.65;4.13;;;11.70;39.30;;;;;;5052392;28;20288;-30
2022/04/29 01:03:37;;;;;;;7.43;4.70;;;11.70;39.10;;;;;;5052666;28;20641;-30
2022/04/29 01:06:03;;;;;;;5.40;4.00;;;11.70;39.10;;;;;;5051243;28;20264;-30
2022/04/29 01:08:28;;;;;;;6.60;4.33;;;11.60;39.10;;;;;;5034656;28;20353;-30
2022/04/29 01:10:55;;;;;;;7.23;4.73;;;11.60;39.10;;;;;;5052147;28;20193;-30
2022/04/29 01:13:21;;;;;;;6.22;4.55;;;11.60;39.30;;;;;;5052447;28;20208;-30
2022/04/29 01:15:48;;;;;;;8.20;4.93;;;11.50;39.50;;;;;;5052716;28;20197;-30
2022/04/29 01:18:17;;;;;;;8.48;4.63;;;11.50;39.60;;;;;;5052599;28;20478;-30
2022/04/29 01:20:43;;;;;;;7.20;4.70;;;11.40;39.20;;;;;;5052032;28;20189;-30
2022/04/29 01:23:13;;;;;;;6.57;4.20;;;11.40;39.20;;;;;;5052532;28;20172;-30
2022/04/29 01:25:40;;;;;;;7.43;4.55;;;11.40;39.20;;;;;;5050764;28;20181;-30
2022/04/29 01:28:06;;;;;;;5.95;4.35;;;11.40;39.10;;;;;;5052313;28;20291;-30
2022/04/29 01:30:32;;;;;;;6.97;4.23;;;11.50;39.20;;;;;;5051939;28;20706;-30
2022/04/29 01:32:59;;;;;;;6.38;4.55;;;11.50;39.10;;;;;;5052183;28;20932;-30
2022/04/29 01:35:25;;;;;;;6.60;4.78;;;11.40;39.00;;;;;;5052318;28;20201;-30
2022/04/29 01:37:51;;;;;;;5.53;4.13;;;11.40;38.90;;;;;;5052033;28;20191;-30
2022/04/29 01:40:17;;;;;;;10.00;4.23;;;11.40;38.80;;;;;;5051855;28;20193;-30
2022/04/29 01:42:43;;;;;;;5.70;4.60;;;11.30;39.50;;;;;;5051904;28;20439;-30
2022/04/29 01:45:09;;;;;;;6.35;3.85;;;11.30;40.00;;;;;;5052284;28;20825;-30
2022/04/29 01:47:35;;;;;;;5.50;4.30;;;11.20;40.30;;;;;;5052010;28;20180;-30
2022/04/29 01:50:02;;;;;;;5.33;3.90;;;11.20;39.70;;;;;;5051903;28;20538;-30
2022/04/29 01:52:28;;;;;;;7.90;4.75;;;11.10;40.00;;;;;;5051671;28;20631;-30
2022/04/29 01:54:53;;;;;;;7.10;4.40;;;11.20;39.90;;;;;;5051934;28;20195;-30
2022/04/29 01:57:19;;;;;;;5.70;4.23;;;11.20;39.70;;;;;;5052688;28;20339;-30
2022/04/29 01:59:45;;;;;;;8.20;5.70;;;11.20;39.50;;;;;;5052351;28;20205;-30
2022/04/29 02:02:11;;;;;;;7.47;5.20;;;11.20;39.90;;;;;;5052024;28;20226;-30
2022/04/29 02:04:37;;;;;;;7.75;4.68;;;11.10;39.50;;;;;;5051799;28;20184;-30
2022/04/29 02:07:04;;;;;;;6.80;4.60;;;11.10;39.50;;;;;;5051943;28;20173;-31
2022/04/29 02:09:30;;;;;;;5.40;3.97;;;11.10;39.50;;;;;;5051562;28;20858;-30
2022/04/29 02:12:04;;;;;;;7.70;4.87;;;11.10;39.20;;;;;;5051536;28;20177;-30
2022/04/29 02:14:39;;;;;;;8.00;4.05;;;11.10;39.50;;;;;;5051904;28;20185;-30
2022/04/29 02:17:06;;;;;;;5.25;3.90;;;11.10;39.50;;;;;;5051624;28;20567;-30
2022/04/29 02:19:33;;;;;;;8.85;4.57;;;11.00;39.40;;;;;;5051633;28;20173;-30
2022/04/29 02:22:00;;;;;;;8.55;5.03;;;11.00;39.30;;;;;;5051560;28;20260;-30
2022/04/29 02:24:26;;;;;;;7.97;3.97;;;11.00;39.40;;;;;;5051652;28;20165;-30
2022/04/29 02:26:53;;;;;;;8.55;4.53;;;10.90;39.30;;;;;;5051531;28;20552;-30
2022/04/29 02:29:19;;;;;;;5.18;3.75;;;10.90;39.20;;;;;;5051726;28;20187;-31
2022/04/29 02:31:45;;;;;;;8.95;5.00;;;10.90;39.30;;;;;;5051639;28;20181;-30
2022/04/29 02:34:11;;;;;;;4.75;4.10;;;10.90;39.70;;;;;;5051547;28;20181;-30
2022/04/29 02:36:37;;;;;;;7.00;4.27;;;10.80;39.40;;;;;;5051569;28;20346;-30
2022/04/29 02:39:03;;;;;;;6.37;4.50;;;10.80;40.30;;;;;;5051548;28;20449;-30
2022/04/29 02:41:30;;;;;;;4.72;3.30;;;10.70;40.00;;;;;;5051129;28;20430;-30
2022/04/29 02:43:55;;;;;;;7.80;4.38;;;10.70;39.60;;;;;;5051662;28;20170;-30
2022/04/29 02:46:21;;;;;;;7.43;5.03;;;10.70;39.70;;;;;;5051676;28;20261;-30
2022/04/29 02:48:48;;;;;;;7.17;4.80;;;10.60;39.70;;;;;;5051412;28;20212;-30
2022/04/29 02:51:15;;;;;;;5.30;3.80;;;10.60;39.50;;;;;;5051272;28;20229;-30
2022/04/29 02:53:41;;;;;;;6.13;4.68;;;10.60;39.90;;;;;;5051358;28;20188;-30
2022/04/29 02:56:07;;;;;;;6.88;4.72;;;10.50;39.60;;;;;;5051651;28;20201;-30
2022/04/29 02:58:32;;;;;;;9.10;4.63;;;10.60;39.50;;;;;;5051603;28;20185;-30
2022/04/29 03:00:59;;;;;;;5.83;4.30;;;10.50;40.20;;;;;;5050942;28;20212;-30
2022/04/29 03:03:24;;;;;;;7.95;4.72;;;10.40;39.90;;;;;;5053936;28;20260;-30
2022/04/29 03:05:50;;;;;;;5.20;4.33;;;10.40;40.20;;;;;;5054806;28;20323;-30
2022/04/29 03:08:16;;;;;;;5.33;4.00;;;10.40;39.90;;;;;;5054773;28;20177;-30
2022/04/29 03:10:41;;;;;;;8.30;5.00;;;10.40;39.80;;;;;;5054673;28;20204;-30
2022/04/29 03:13:07;;;;;;;6.37;4.73;;;10.40;39.60;;;;;;5054977;28;20537;-30
2022/04/29 03:15:34;;;;;;;5.07;3.95;;;10.30;39.60;;;;;;5054952;28;20217;-30
2022/04/29 03:18:20;;;;;;;6.40;4.60;;;10.30;40.00;;;;;;5054579;28;20181;-30
2022/04/29 03:20:49;;;;;;;6.72;4.60;;;10.20;39.80;;;;;;5054480;28;20279;-30
2022/04/29 03:23:15;;;;;;;7.60;4.45;;;10.20;39.80;;;;;;5054344;28;20176;-30
2022/04/29 03:25:41;;;;;;;5.60;4.53;;;10.10;39.70;;;;;;5054367;28;20272;-30
2022/04/29 03:28:07;;;;;;;6.97;5.22;;;10.30;40.30;;;;;;5054339;28;20661;-30
2022/04/29 03:30:34;;;;;;;4.95;3.85;;;10.20;39.50;;;;;;5054046;28;20718;-30
2022/04/29 03:33:02;;;;;;;5.93;4.15;;;10.30;39.60;;;;;;5054373;28;20191;-30
2022/04/29 03:35:28;;;;;;;8.43;4.90;;;10.10;39.50;;;;;;5054397;28;20212;-30
2022/04/29 03:37:54;;;;;;;4.80;3.42;;;10.10;40.10;;;;;;5054483;28;20173;-30
2022/04/29 03:40:22;;;;;;;5.40;4.45;;;10.10;39.80;;;;;;5054193;28;20196;-30
2022/04/29 03:42:53;;;;;;;4.90;3.08;;;10.10;40.00;;;;;;5054375;28;20257;-30
2022/04/29 03:45:24;;;;;;;9.48;4.28;;;10.00;39.70;;;;;;5054136;28;20218;-30
2022/04/29 03:47:50;;;;;;;13.38;3.88;;;10.10;39.60;;;;;;5054328;28;20710;-30
2022/04/29 03:50:16;;;;;;;5.07;4.10;;;10.00;39.60;;;;;;5053960;28;20600;-30
2022/04/29 03:52:53;;;;;;;7.15;4.35;;;10.00;40.20;;;;;;5053391;28;20527;-30
2022/04/29 03:55:23;;;;;;;6.03;3.67;;;10.10;39.70;;;;;;5053375;28;20246;-30
2022/04/29 03:57:50;;;;;;;6.88;4.68;;;10.00;39.60;;;;;;5053882;28;20179;-30
2022/04/29 04:00:16;;;;;;;9.50;5.22;;;10.00;39.60;;;;;;5053781;28;20233;-30
2022/04/29 04:02:42;;;;;;;7.70;5.05;;;10.00;40.20;;;;;;5053962;28;20172;-30
2022/04/29 04:05:09;;;;;;;15.55;6.25;;;10.00;39.80;;;;;;5053678;28;20681;-30
2022/04/29 04:07:35;;;;;;;6.57;4.25;;;10.00;39.80;;;;;;5053745;28;20180;-30
2022/04/29 04:10:01;;;;;;;9.93;5.70;;;10.10;40.00;;;;;;5053657;28;20234;-30
2022/04/29 04:12:37;;;;;;;6.55;4.55;;;10.00;40.10;;;;;;5053319;28;20219;-30
2022/04/29 04:15:03;;;;;;;6.60;3.97;;;10.10;40.00;;;;;;5052760;28;20161;-30
2022/04/29 04:17:29;;;;;;;8.63;4.65;;;10.10;40.10;;;;;;5053520;28;20251;-30
2022/04/29 04:19:54;;;;;;;9.63;4.70;;;10.10;40.20;;;;;;5053268;28;20197;-30
2022/04/29 04:22:20;;;;;;;11.03;4.50;;;10.10;40.60;;;;;;5053160;28;20165;-30
2022/04/29 04:24:46;;;;;;;7.20;3.83;;;10.10;40.70;;;;;;5053397;28;20537;-30
2022/04/29 04:27:11;;;;;;;5.10;3.83;;;10.20;40.60;;;;;;5053271;28;20172;-30
2022/04/29 04:29:37;;;;;;;7.70;5.30;;;10.30;40.80;;;;;;5053414;28;20192;-30
2022/04/29 04:32:03;;;;;;;7.27;5.27;;;10.30;40.90;;;;;;5052993;28;20176;-30
2022/04/29 04:37:13;;;;;;;7.30;5.07;;;10.50;41.30;;;;;;5053110;28;20238;-30
2022/04/29 04:39:39;;;;;;;5.80;3.72;;;10.60;41.10;;;;;;5052961;28;21089;-30
2022/04/29 04:42:06;;;;;;;7.27;4.23;;;10.60;41.10;;;;;;5052826;28;20262;-30
2022/04/29 04:44:31;;;;;;;6.50;5.15;;;10.70;41.20;;;;;;5052969;28;20655;-30
2022/04/29 04:46:57;;;;;;;7.93;4.53;;;10.80;41.20;;;;;;5052777;28;20196;-30
2022/04/29 04:49:23;;;;;;;6.13;4.70;;;10.90;41.40;;;;;;5052745;28;20193;-30
2022/04/29 04:51:48;;;;;;;8.50;5.57;;;11.00;41.30;;;;;;5052915;28;20176;-30
2022/04/29 04:54:14;;;;;;;8.80;5.40;;;11.10;41.20;;;;;;5052713;28;20188;-30
2022/04/29 04:56:40;;;;;;;8.30;6.05;;;11.20;41.00;;;;;;5052655;28;20225;-30
2022/04/29 04:59:06;;;;;;;9.33;5.97;;;11.30;41.00;;;;;;5052786;28;20257;-30
2022/04/29 05:01:31;;;;;;;11.80;6.77;;;11.50;41.30;;;;;;5052343;28;20686;-30
2022/04/29 05:03:57;;;;;;;6.53;4.63;;;11.60;41.30;;;;;;5052860;28;20173;-30
2022/04/29 05:06:23;;;;;;;10.53;6.43;;;11.70;41.40;;;;;;5052430;28;20713;-30
2022/04/29 05:08:48;;;;;;;8.33;5.50;;;11.80;41.40;;;;;;5052411;28;20176;-30
2022/04/29 05:11:14;;;;;;;8.90;5.30;;;11.90;41.30;;;;;;5052373;28;20197;-30
2022/04/29 05:13:40;;;;;;;8.10;6.30;;;12.00;41.30;;;;;;5052706;28;20212;-30
2022/04/29 05:16:05;;;;;;;9.17;5.00;;;12.10;41.20;;;;;;5052340;28;20193;-30
2022/04/29 05:18:31;;;;;;;6.70;4.87;;;12.20;41.40;;;;;;5052688;28;20188;-30
2022/04/29 05:20:57;;;;;;;7.87;4.80;;;12.30;41.20;;;;;;5051807;28;20251;-30
2022/04/29 05:23:22;;;;;;;9.50;5.63;;;12.30;41.00;;;;;;5052560;28;20238;-30
2022/04/29 05:25:48;;;;;;;6.57;5.23;;;12.40;41.00;;;;;;5052296;28;20271;-30
2022/04/29 05:28:14;;;;;;;6.10;5.33;;;12.50;41.00;;;;;;5052216;28;20252;-30
2022/04/29 05:30:40;;;;;;;7.63;4.30;;;12.50;40.60;;;;;;5051881;28;20236;-30
2022/04/29 05:33:06;;;;;;;4.77;4.10;;;12.60;40.60;;;;;;5052247;28;20173;-30
2022/04/29 05:35:34;;;;;;;7.03;4.68;;;12.60;40.40;;;;;;5052417;28;20542;-30
2022/04/29 05:38:01;;;;;;;7.28;5.22;;;12.60;40.30;;;;;;5052204;28;20583;-30
2022/04/29 05:43:12;;;;;;;8.45;5.15;;;12.60;40.10;;;;;;5052204;28;20187;-30
2022/04/29 05:45:38;;;;;;;9.05;4.35;;;12.70;40.30;;;;;;5052233;28;20177;-30
2022/04/29 05:48:04;;;;;;;19.50;4.55;;;12.70;40.20;;;;;;5051736;28;20207;-30
2022/04/29 05:50:30;;;;;;;8.07;4.28;;;12.80;40.00;;;;;;5051498;28;20201;-30
2022/04/29 05:52:55;;;;;;;6.50;4.70;;;12.90;40.20;;;;;;5051897;28;20169;-30
2022/04/29 05:55:22;;;;;;;8.97;6.00;;;12.90;40.10;;;;;;5052098;28;20539;-30
2022/04/29 05:57:48;;;;;;;11.52;4.97;;;12.90;40.10;;;;;;5051880;28;20415;-30
2022/04/29 06:00:15;;;;;;;7.47;5.50;;;13.00;39.90;;;;;;5051701;28;20247;-30
2022/04/29 06:02:44;;;;;;;9.85;5.28;;;13.10;40.00;;;;;;5051653;28;20165;-30
2022/04/29 06:05:10;;;;;;;10.27;5.72;;;13.10;40.00;;;;;;5051936;28;20192;-30
2022/04/29 06:07:35;;;;;;;10.67;4.67;;;13.20;39.90;;;;;;5051938;28;20173;-30
2022/04/29 06:10:01;;;;;;;8.60;5.70;;;13.30;39.80;;;;;;5051976;28;20200;-30
2022/04/29 06:12:27;;;;;;;10.50;5.50;;;13.40;39.80;;;;;;5051747;28;20252;-30
2022/04/29 06:14:53;;;;;;;10.33;6.53;;;13.40;39.50;;;;;;5051939;28;20235;-30
2022/04/29 06:17:21;;;;;;;8.18;5.32;;;13.60;39.60;;;;;;5051675;28;20189;-30
2022/04/29 06:19:46;;;;;;;8.05;5.13;;;13.70;39.60;;;;;;5051413;28;20193;-30
2022/04/29 06:22:12;;;;;;;9.80;5.80;;;13.90;39.40;;;;;;5051260;28;20165;-30
2022/04/29 06:24:39;;;;;;;8.77;5.90;;;14.00;38.80;;;;;;5051559;28;20173;-30
2022/04/29 06:27:05;;;;;;;7.95;5.60;;;14.10;38.90;;;;;;5051620;28;20181;-30
2022/04/29 06:29:31;;;;;;;9.37;5.17;;;14.30;38.90;;;;;;5051488;28;20184;-31
2022/04/29 06:31:56;;;;;;;11.07;5.40;;;14.40;38.90;;;;;;5051187;28;20928;-31
2022/04/29 06:34:22;;;;;;;8.73;4.60;;;14.50;38.70;;;;;;5051733;28;20212;-30
2022/04/29 06:36:48;;;;;;;8.90;4.87;;;14.70;38.50;;;;;;5051427;28;20547;-30
2022/04/29 06:39:13;;;;;;;9.80;6.40;;;14.80;38.50;;;;;;5055386;28;20173;-30
2022/04/29 06:41:41;;;;;;;14.53;5.70;;;14.90;37.70;;;;;;5055299;28;20196;-30
2022/04/29 06:44:07;;;;;;;7.72;4.57;;;15.00;37.70;;;;;;5055181;28;20670;-31
2022/04/29 06:46:32;;;;;;;8.87;6.20;;;15.10;37.80;;;;;;5055126;28;20181;-30
2022/04/29 06:48:58;;;;;;;15.87;6.60;;;15.30;37.90;;;;;;5055219;28;20231;-30
2022/04/29 06:51:25;;;;;;;8.20;5.57;;;15.40;37.40;;;;;;5055105;28;20208;-31
2022/04/29 06:53:51;;;;;;;7.22;5.50;;;15.40;37.20;;;;;;5055362;28;20264;-30
2022/04/29 06:56:17;;;;;;;7.38;4.63;;;15.40;37.60;;;;;;5054890;28;20197;-30
2022/04/29 06:58:43;;;;;;;8.52;4.80;;;15.50;36.90;;;;;;5054933;28;20173;-30
2022/04/29 07:01:09;;;;;;;9.57;5.93;;;15.50;36.90;;;;;;5054409;28;20209;-31
2022/04/29 07:03:36;;;;;;;15.50;7.40;;;15.50;37.10;;;;;;5055129;28;20410;-31
2022/04/29 07:06:03;;;;;;;11.75;7.15;;;15.60;36.90;;;;;;5054845;28;20422;-31
2022/04/29 07:08:29;;;;;;;8.48;5.97;;;15.60;36.90;;;;;;5054756;28;20228;-31
2022/04/29 07:10:56;;;;;;;9.00;5.80;;;15.60;36.80;;;;;;5054422;28;20221;-30
2022/04/29 07:13:21;;;;;;;11.18;6.60;;;15.70;36.90;;;;;;5054712;28;20235;-31
2022/04/29 07:15:48;;;;;;;8.10;6.03;;;15.80;36.80;;;;;;5054455;28;20566;-31
2022/04/29 07:18:15;;;;;;;10.82;5.38;;;16.00;36.90;;;;;;5054446;28;20185;-30
2022/04/29 07:20:42;;;;;;;7.18;6.15;;;16.10;36.60;;;;;;5054213;28;20718;-31
2022/04/29 07:23:07;;;;;;;9.30;6.00;;;16.30;36.80;;;;;;5054545;28;20264;-31
2022/04/29 07:25:33;;;;;;;9.67;5.53;;;16.50;36.80;;;;;;5054773;28;20169;-30
2022/04/29 07:27:59;;;;;;;9.53;6.40;;;16.70;36.90;;;;;;5054550;28;20453;-30
2022/04/29 07:30:26;;;;;;;8.00;6.15;;;17.00;35.60;;;;;;5054297;28;20189;-30
2022/04/29 07:32:52;;;;;;;10.25;7.68;;;17.20;36.00;;;;;;5054616;28;20185;-31
2022/04/29 07:43:51;;;;;;;12.13;6.60;;;18.00;33.80;;;;;;4953931;29;20692;-31
2022/04/29 07:46:17;;;;;;;8.37;5.37;;;18.00;33.70;;;;;;4953625;29;20192;-31
2022/04/29 07:48:44;;;;;;;9.90;6.30;;;18.00;33.60;;;;;;4953614;28;20196;-31
2022/04/29 07:51:09;;;;;;;8.60;5.97;;;18.00;33.70;;;;;;4953242;28;20258;-30
2022/04/29 07:53:35;;;;;;;8.17;5.77;;;18.00;33.70;;;;;;4953632;29;20634;-31
2022/04/29 07:56:01;;;;;;;10.00;5.23;;;18.10;32.90;;;;;;4953494;29;20203;-30
2022/04/29 07:58:27;;;;;;;11.52;6.78;;;18.10;33.60;;;;;;4953530;29;20212;-30
2022/04/29 08:00:55;;;;;;;10.97;7.23;;;18.20;33.00;;;;;;4953057;28;20217;-31
2022/04/29 08:03:21;;;;;;;8.73;6.00;;;18.10;33.10;;;;;;4953438;29;20173;-31
2022/04/29 08:05:46;;;;;;;10.65;6.57;;;18.20;33.70;;;;;;4952869;29;20184;-31
2022/04/29 08:08:12;;;;;;;7.13;6.20;;;18.30;32.70;;;;;;4953409;28;20774;-31
2022/04/29 08:10:38;;;;;;;11.50;7.57;;;18.40;33.50;;;;;;4959366;28;20606;-30
2022/04/29 08:13:04;;;;;;;9.37;4.93;;;18.50;33.00;;;;;;5052555;28;20665;-31
2022/04/29 08:15:31;;;;;;;7.78;5.90;;;18.50;31.70;;;;;;5053407;28;20181;-31
2022/04/29 08:17:57;;;;;;;11.98;6.10;;;18.60;32.00;;;;;;5053499;28;20177;-31
2022/04/29 08:20:23;;;;;;;7.10;5.72;;;18.60;31.80;;;;;;5053098;28;20189;-31
2022/04/29 08:22:49;;;;;;;8.77;5.82;;;18.50;32.20;;;;;;5053374;28;20173;-31
2022/04/29 08:25:18;;;;;;;8.75;5.90;;;18.60;32.90;;;;;;5053102;28;20185;-30
2022/04/29 08:27:46;;;;;;;7.10;5.55;;;18.70;31.80;;;;;;5053512;28;20252;-30
2022/04/29 08:30:12;;;;;;;7.43;5.57;;;18.80;32.00;;;;;;5053414;28;20204;-31
2022/04/29 08:32:46;;;;;;;7.30;5.50;;;18.90;32.80;;;;;;5052878;28;20185;-31
2022/04/29 08:35:12;;;;;;;10.63;5.82;;;19.00;31.10;;;;;;5053016;28;20161;-31
2022/04/29 08:37:40;;;;;;;7.93;6.05;;;19.20;32.00;;;;;;5053050;28;20253;-31
2022/04/29 08:40:06;;;;;;;5.40;4.32;;;19.30;31.60;;;;;;5053200;28;20543;-31
2022/04/29 08:42:37;;;;;;;6.57;5.13;;;19.60;32.70;;;;;;5051420;28;20177;-31
2022/04/29 08:45:06;;;;;;;8.05;4.53;;;19.80;31.80;;;;;;5053113;28;20170;-31
2022/04/29 08:47:39;;;;;;;7.78;5.15;;;19.90;31.60;;;;;;5052511;28;20231;-31
2022/04/29 08:50:08;;;;;;;6.93;6.07;;;20.20;30.80;;;;;;5052652;28;20552;-31
2022/04/29 08:52:35;;;;;;;6.13;5.50;;;20.40;30.50;;;;;;5052574;28;20205;-31
2022/04/29 09:00:38;;;;;;;11.90;5.28;;;20.70;28.70;;;;;;5051970;28;20212;-31
2022/04/29 09:03:06;;;;;;;8.43;5.10;;;20.90;28.40;;;;;;5052567;28;20661;-31
2022/04/29 09:05:33;;;;;;;7.30;5.63;;;20.90;29.20;;;;;;5052635;28;20207;-31
2022/04/29 09:08:01;;;;;;;9.60;6.03;;;21.00;29.50;;;;;;5052636;28;20181;-31
2022/04/29 09:10:33;;;;;;;7.50;4.10;;;21.20;29.80;;;;;;5052101;28;20200;-31
2022/04/29 09:13:14;;;;;;;6.88;3.75;;;21.40;29.10;;;;;;5052756;28;20264;-31
2022/04/29 09:15:50;;;;;;;5.45;3.72;;;21.30;27.00;;;;;;5052345;28;20258;-31
2022/04/29 09:18:42;;;;;;;6.85;3.80;;;21.40;27.60;;;;;;5052369;28;20534;-31
2022/04/29 09:21:15;;;;;;;7.82;4.70;;;21.40;24.80;;;;;;5051648;28;20195;-31
2022/04/29 09:23:42;;;;;;;5.35;4.05;;;21.30;24.80;;;;;;5052503;28;20172;-31
2022/04/29 09:26:22;;;;;;;7.95;5.05;;;21.30;26.60;;;;;;5052460;28;20629;-31
2022/04/29 09:28:49;;;;;;;5.57;3.58;;;21.50;26.30;;;;;;5052435;28;20201;-31
2022/04/29 09:31:15;;;;;;;7.43;3.35;;;21.60;26.70;;;;;;5051831;28;20558;-31
2022/04/29 09:33:53;;;;;;;4.20;3.40;;;21.80;25.30;;;;;;5052265;28;20260;-31
2022/04/29 09:36:22;;;;;;;3.40;2.37;;;22.10;26.60;;;;;;5052213;28;20454;-31
2022/04/29 09:41:58;;;;;;;5.88;3.70;;;22.70;27.10;;;;;;5052024;28;20196;-31
2022/04/29 09:44:35;;;;;;;5.77;3.40;;;23.10;27.10;;;;;;5052003;28;20149;-32
2022/04/29 09:47:11;;;;;;;4.70;3.10;;;23.40;27.30;;;;;;5051998;28;20912;-32
2022/04/29 09:49:37;;;;;;;4.47;3.80;;;22.60;25.90;;;;;;5051955;28;20434;-32
2022/04/29 09:52:04;;;;;;;7.90;3.27;;;23.80;23.30;;;;;;5051769;28;20411;-32
2022/04/29 09:54:37;;;;;;;6.23;3.73;;;23.90;25.50;;;;;;5051622;28;20785;-32
2022/04/29 09:57:12;;;;;;;5.50;3.80;;;24.00;26.20;;;;;;5052079;28;20439;-32
2022/04/29 09:59:41;;;;;;;7.10;3.90;;;24.10;25.50;;;;;;5051243;28;20435;-32
2022/04/29 10:02:08;;;;;;;5.23;4.53;;;24.20;25.90;;;;;;5051697;28;20493;-32
2022/04/29 10:04:38;;;;;;;6.00;4.40;;;24.10;23.50;;;;;;5051672;28;20727;-32
2022/04/29 10:07:06;;;;;;;6.37;4.57;;;24.00;22.60;;;;;;5052003;28;20396;-31
2022/04/29 10:09:33;;;;;;;4.93;4.10;;;23.90;23.50;;;;;;5051589;28;20404;-32
2022/04/29 10:12:04;;;;;;;7.00;3.87;;;23.80;25.00;;;;;;5051564;28;20886;-32
2022/04/29 10:14:36;;;;;;;6.13;4.40;;;23.80;24.00;;;;;;5055691;28;20411;-32
2022/04/29 10:22:45;;;;;;;5.27;3.63;;;23.90;21.20;;;;;;5055891;28;20387;-32
2022/04/29 10:25:12;;;;;;;5.60;2.83;;;23.70;20.00;;;;;;5055426;28;20421;-32
2022/04/29 10:27:40;;;;;;;8.63;3.90;;;23.50;20.80;;;;;;5055586;28;20510;-32
2022/04/29 10:30:07;;;;;;;6.00;2.87;;;23.30;20.20;;;;;;5055315;28;20439;-32
2022/04/29 10:33:00;;;;;;;5.97;3.20;;;23.20;20.00;;;;;;5055232;28;20790;-32
2022/04/29 10:35:49;;;;;;;4.10;3.60;;;23.20;20.50;;;;;;5055349;28;20407;-32
2022/04/29 10:38:18;;;;;;;5.23;3.50;;;23.30;20.30;;;;;;5055395;28;20420;-32
2022/04/29 10:40:45;;;;;;;5.47;4.43;;;23.20;20.60;;;;;;5055040;28;20430;-32
2022/04/29 10:43:14;;;;;;;4.33;3.57;;;23.20;21.20;;;;;;5055271;28;20415;-32
2022/04/29 10:46:05;;;;;;;12.33;4.30;;;23.20;20.70;;;;;;5055307;28;20415;-32
2022/04/29 10:48:33;;;;;;;5.30;3.77;;;23.40;21.40;;;;;;5055141;28;20404;-32
2022/04/29 10:51:27;;;;;;;4.77;3.33;;;23.30;20.00;;;;;;5055044;28;20581;-33
2022/04/29 10:53:56;;;;;;;5.50;2.77;;;23.20;19.50;;;;;;5055099;28;20877;-32
2022/04/29 10:56:31;;;;;;;5.60;3.60;;;23.30;21.80;;;;;;5055013;28;20447;-32
2022/04/29 10:59:11;;;;;;;4.37;2.93;;;23.60;21.20;;;;;;5055209;28;20418;-32
2022/04/29 11:01:39;;;;;;;4.97;3.20;;;23.80;19.50;;;;;;5054526;28;20542;-32
2022/04/29 11:04:15;;;;;;;5.33;3.40;;;23.80;19.10;;;;;;5055053;28;20404;-32
2022/04/29 11:06:44;;;;;;;4.10;2.93;;;23.70;20.60;;;;;;5054825;28;20815;-32
2022/04/29 11:09:35;;;;;;;3.00;2.50;;;23.60;19.80;;;;;;5054678;28;20823;-33
2022/04/29 11:12:03;;;;;;;4.17;3.20;;;23.50;19.20;;;;;;5054474;28;20403;-32
2022/04/29 11:14:29;;;;;;;5.50;3.20;;;23.50;18.80;;;;;;5054833;28;20404;-32
2022/04/29 11:17:10;;;;;;;4.30;2.73;;;23.70;20.70;;;;;;5054611;28;20462;-32
2022/04/29 11:19:40;;;;;;;4.60;2.93;;;23.80;19.70;;;;;;5054749;28;20502;-32
2022/04/29 11:24:52;;;;;;;4.33;3.20;;;23.80;19.20;;;;;;5054219;28;20462;-32
2022/04/29 11:27:28;;;;;;;4.37;3.37;;;23.70;20.00;;;;;;5054485;28;20419;-32
2022/04/29 11:30:02;;;;;;;4.17;3.53;;;23.90;19.90;;;;;;5054229;28;20431;-32
2022/04/29 11:32:28;;;;;;;4.80;3.53;;;24.00;19.60;;;;;;5054299;28;20469;-33
2022/04/29 11:34:56;;;;;;;3.13;2.40;;;24.00;19.60;;;;;;5054446;28;20412;-33
2022/04/29 11:37:23;;;;;;;5.07;3.37;;;23.90;19.20;;;;;;5054199;28;20558;-32
2022/04/29 11:39:50;;;;;;;3.73;2.90;;;23.90;19.50;;;;;;5054368;28;20428;-32
2022/04/29 11:42:19;;;;;;;6.03;3.67;;;23.90;20.00;;;;;;5054011;28;20399;-32
2022/04/29 11:44:45;;;;;;;5.80;3.47;;;23.90;19.00;;;;;;5053864;28;20420;-33
2022/04/29 11:47:16;;;;;;;4.73;2.63;;;23.80;18.00;;;;;;5054159;28;20485;-32
2022/04/29 11:49:42;;;;;;;4.70;3.33;;;23.70;18.80;;;;;;5053942;28;20479;-32
2022/04/29 11:52:17;;;;;;;4.17;3.00;;;23.70;19.80;;;;;;5054110;28;20423;-32
2022/04/29 11:55:00;;;;;;;3.43;2.33;;;23.80;19.80;;;;;;5054147;28;20411;-32
2022/04/29 11:57:29;;;;;;;4.47;2.63;;;24.10;17.80;;;;;;5053909;28;20492;-32
2022/04/29 11:59:55;;;;;;;3.83;2.53;;;24.20;18.80;;;;;;5053546;28;20605;-32
2022/04/29 12:02:22;;;;;;;4.60;2.60;;;24.40;17.10;;;;;;5053633;28;20411;-32
2022/04/29 12:04:56;;;;;;;14.40;3.13;;;24.30;18.50;;;;;;5053774;28;20408;-32
2022/04/29 12:07:23;;;;;;;3.40;2.50;;;24.40;17.40;;;;;;5053661;28;20406;-32
2022/04/29 12:09:49;;;;;;;3.53;2.30;;;24.40;17.80;;;;;;5053518;28;20442;-32
2022/04/29 12:12:29;;;;;;;3.60;2.73;;;24.50;18.10;;;;;;5053609;28;20412;-32
2022/04/29 12:14:56;;;;;;;6.97;3.63;;;24.50;17.30;;;;;;5053604;28;20491;-32
2022/04/29 12:17:32;;;;;;;8.87;3.50;;;24.70;18.90;;;;;;5053411;28;20467;-32
2022/04/29 12:19:59;;;;;;;4.80;2.77;;;25.10;18.10;;;;;;5053293;28;20427;-32
2022/04/29 12:22:29;;;;;;;4.70;2.80;;;25.40;19.30;;;;;;5053363;28;20447;-32
2022/04/29 12:24:55;;;;;;;3.60;2.70;;;25.60;18.20;;;;;;5053337;28;20785;-32
2022/04/29 12:27:30;;;;;;;3.93;2.93;;;25.60;15.80;;;;;;5053640;28;20408;-32
2022/04/29 12:35:30;;;;;;;7.70;3.43;;;25.60;16.80;;;;;;5052465;28;20419;-32
2022/04/29 12:37:56;;;;;;;7.83;3.33;;;25.60;17.20;;;;;;5053359;28;21079;-32
2022/04/29 12:40:32;;;;;;;6.27;3.87;;;25.70;17.20;;;;;;5053103;28;20932;-32
2022/04/29 12:43:24;;;;;;;4.27;3.50;;;25.60;16.50;;;;;;5052987;28;20502;-32
2022/04/29 12:45:49;;;;;;;6.97;3.53;;;25.40;16.60;;;;;;5048192;28;20423;-33
2022/04/29 12:48:17;;;;;;;3.50;2.80;;;25.50;17.90;;;;;;5052922;28;20415;-32
2022/04/29 12:50:44;;;;;;;7.80;3.00;;;25.70;16.80;;;;;;5052765;28;20197;-32
2022/04/29 12:53:16;;;;;;;3.20;2.20;;;25.90;18.10;;;;;;5052574;28;20848;-32
2022/04/29 12:55:42;;;;;;;4.40;2.67;;;26.10;17.00;;;;;;5052611;28;20773;-32
2022/04/29 12:58:10;;;;;;;4.77;2.70;;;26.00;17.10;;;;;;5052744;28;20404;-32
2022/04/29 13:00:38;;;;;;;3.33;2.20;;;26.20;17.20;;;;;;5052329;28;20229;-32
2022/04/29 13:03:07;;;;;;;3.43;2.73;;;26.20;16.50;;;;;;5052783;28;20408;-32
2022/04/29 13:05:34;;;;;;;5.50;2.70;;;26.20;17.90;;;;;;5052594;28;20407;-32
2022/04/29 13:08:04;;;;;;;3.90;2.60;;;26.30;17.40;;;;;;5052672;28;20434;-32
2022/04/29 13:10:30;;;;;;;4.27;2.77;;;26.30;15.60;;;;;;5052379;28;20428;-32
2022/04/29 13:12:57;;;;;;;5.57;2.60;;;26.30;17.60;;;;;;5052485;28;20509;-33
2022/04/29 13:15:23;;;;;;;3.93;2.60;;;26.50;17.00;;;;;;5052554;28;20422;-32
2022/04/29 13:17:49;;;;;;;5.40;3.03;;;26.70;18.30;;;;;;5052418;28;20447;-32
2022/04/29 13:20:15;;;;;;;3.40;2.60;;;26.80;15.30;;;;;;5052650;28;20431;-32
2022/04/29 13:22:42;;;;;;;3.73;2.27;;;26.80;17.10;;;;;;5052944;28;20410;-32
2022/04/29 13:25:09;;;;;;;5.20;3.27;;;26.80;16.70;;;;;;5052692;28;20404;-32
2022/04/29 13:27:35;;;;;;;2.57;2.07;;;26.60;15.70;;;;;;5052271;28;20424;-32